Airfield :
LOGIN :

Register | Disclaimer

   EN    FR    IT 

 










Legend :    VFR   Marginal VFR   IFR   Intensive IFR   Very Intensive IFR
Visi :
Ceiling :
>= 8 km
>= 3000ft
5 to 8 km
1000 to 3000 ft
1500m to 5 km
500 to 1000 ft
800 to 1500m
200 to 500 ft
< 800m
< 200 ft
Symbols :   Thunderstorms  Fog  Heavy snow  Heavy precipitations  Wind > 20 kt
SIGMETs :     Misc.  Thunderstorms  Icing  Turbulence  Mountain Waves  Volcanic Ashes






- Airport Elevation : 610 ft
- IATA code : VXO


ESMX - Växjö Kronoberg

CURRENT METAR :
  • 271220Z 12008KT 080V160 9999 SCT023 OVC049 17/12 Q1021

EXPIRED METARs :
  • 271150Z 14008KT 090V170 9999 SCT019 BKN051 17/13 Q1021
  • 271120Z 13006KT 080V160 9999 BKN017 BKN051 17/13 Q1021
  • 271050Z 13008KT 050V160 9999 BKN016 16/14 Q1021
  • 271020Z 13007KT 060V160 9999 BKN016 BKN051 16/14 Q1021

TAF TAF ESMX
Valid from the 27 at 12:00 until the 27 at 14:00 UTC


271130Z 2712/2714 13010KT CAVOK



MET'MAP, your aeronautical weather chart ! - Copyright ORBIFLY December 2007 - Disclaimer

ORBIFLY MET'MAP TEAM :

Programming & Development : Alexandra Zaïnal
Concept & original design : Baudouin d'Aumeries
Assistance for programming : Marc-Olivier Méhu
Technical & hardware support : Manuel Goepfert

Contact : metmap@orbifly.com




SOURCES & CREDITS :

   NOAA